createdAt,value
2024-05-09T00:00:36.187Z,100.00
2024-05-09T00:03:08.389Z,100.00
2024-05-09T00:05:36.801Z,100.00
2024-05-09T00:08:04.375Z,100.00
2024-05-09T00:10:36.381Z,100.00
2024-05-09T00:13:05.966Z,100.00
2024-05-09T00:15:33.831Z,100.00
2024-05-09T00:18:01.112Z,100.00
2024-05-09T00:20:33.508Z,100.00
2024-05-09T00:23:07.283Z,100.00
2024-05-09T00:25:34.227Z,100.00
2024-05-09T00:28:00.940Z,100.00
2024-05-09T00:30:33.735Z,100.00
2024-05-09T00:33:03.191Z,100.00
2024-05-09T00:35:30.383Z,100.00
2024-05-09T00:37:57.147Z,100.00
2024-05-09T00:40:35.046Z,100.00
2024-05-09T00:43:06.087Z,100.00
2024-05-09T00:45:33.959Z,100.00
2024-05-09T00:48:03.196Z,100.00
2024-05-09T00:50:36.110Z,100.00
2024-05-09T00:53:06.038Z,100.00
2024-05-09T00:55:34.888Z,100.00
2024-05-09T00:58:03.089Z,100.00
2024-05-09T01:00:37.832Z,100.00
2024-05-09T01:03:07.328Z,100.00
2024-05-09T01:05:35.043Z,100.00
2024-05-09T01:08:03.042Z,100.00
2024-05-09T01:10:34.475Z,100.00
2024-05-09T01:13:06.703Z,100.00
2024-05-09T01:15:35.058Z,100.00
2024-05-09T01:18:07.620Z,100.00
2024-05-09T01:20:41.282Z,100.00
2024-05-09T01:23:11.625Z,100.00
2024-05-09T01:25:38.636Z,100.00
2024-05-09T01:28:06.316Z,100.00
2024-05-09T01:30:35.896Z,100.00
2024-05-09T01:33:06.785Z,100.00
2024-05-09T01:35:35.282Z,100.00
2024-05-09T01:38:02.211Z,100.00
2024-05-09T01:40:36.709Z,100.00
2024-05-09T01:43:06.118Z,100.00
2024-05-09T01:45:32.953Z,100.00
2024-05-09T01:47:59.884Z,100.00
2024-05-09T01:50:37.385Z,100.00
2024-05-09T01:53:08.796Z,100.00
2024-05-09T01:55:35.738Z,100.00
2024-05-09T01:58:02.400Z,100.00
2024-05-09T02:00:37.385Z,100.00
2024-05-09T02:03:10.195Z,100.00
2024-05-09T02:05:37.769Z,100.00
2024-05-09T02:08:05.597Z,100.00
2024-05-09T02:10:33.399Z,100.00
2024-05-09T02:13:00.490Z,100.00
2024-05-09T02:15:27.116Z,100.00
2024-05-09T02:17:54.081Z,100.00
2024-05-09T02:20:30.183Z,100.00
2024-05-09T02:23:05.086Z,100.00
2024-05-09T02:25:32.789Z,100.00
2024-05-09T02:27:59.668Z,100.00
2024-05-09T02:30:36.227Z,100.00
2024-05-09T02:33:07.907Z,100.00
2024-05-09T02:35:35.263Z,100.00
2024-05-09T02:38:02.062Z,100.00
2024-05-09T02:40:36.150Z,100.00
2024-05-09T02:43:05.849Z,100.00
2024-05-09T02:45:32.860Z,100.00
2024-05-09T02:47:59.765Z,100.00
2024-05-09T02:50:34.356Z,100.00
2024-05-09T02:53:05.701Z,100.00
2024-05-09T02:55:32.770Z,100.00
2024-05-09T02:57:59.559Z,100.00
2024-05-09T03:00:34.825Z,100.00
2024-05-09T03:03:08.459Z,100.00
2024-05-09T03:05:36.691Z,100.00
2024-05-09T03:08:04.156Z,100.00
2024-05-09T03:10:35.965Z,100.00
2024-05-09T03:13:09.178Z,100.00
2024-05-09T03:15:36.376Z,100.00
2024-05-09T03:18:04.551Z,100.00
2024-05-09T03:20:34.862Z,100.00
2024-05-09T03:23:03.880Z,100.00
2024-05-09T03:25:30.813Z,100.00
2024-05-09T03:27:57.375Z,100.00
2024-05-09T03:30:35.956Z,100.00
2024-05-09T03:33:15.347Z,100.00
2024-05-09T03:35:46.211Z,100.00
2024-05-09T03:38:13.185Z,100.00
2024-05-09T03:40:47.494Z,100.00
2024-05-09T03:43:14.662Z,100.00
2024-05-09T03:45:45.108Z,100.00
2024-05-09T03:48:12.129Z,100.00
2024-05-09T03:50:39.214Z,100.00
2024-05-09T03:53:09.457Z,100.00
2024-05-09T03:55:36.171Z,100.00
2024-05-09T03:58:02.790Z,100.00
2024-05-09T04:00:36.939Z,100.00
2024-05-09T04:03:11.005Z,100.00
2024-05-09T04:05:40.831Z,100.00
2024-05-09T04:08:08.931Z,100.00
2024-05-09T04:10:35.878Z,100.00
2024-05-09T04:13:03.674Z,100.00
2024-05-09T04:15:30.813Z,100.00
2024-05-09T04:17:57.793Z,100.00
2024-05-09T04:20:34.251Z,100.00
2024-05-09T04:23:06.845Z,100.00
2024-05-09T04:25:33.977Z,100.00
2024-05-09T04:28:00.649Z,100.00
2024-05-09T04:30:36.343Z,100.00
2024-05-09T04:33:07.061Z,100.00
2024-05-09T04:35:35.035Z,100.00
2024-05-09T04:38:01.686Z,100.00
2024-05-09T04:40:33.652Z,100.00
2024-05-09T04:43:03.978Z,100.00
2024-05-09T04:45:30.788Z,100.00
2024-05-09T04:47:57.840Z,100.00
2024-05-09T04:50:33.189Z,100.00
2024-05-09T04:53:04.008Z,100.00
2024-05-09T04:55:30.722Z,100.00
2024-05-09T04:57:57.632Z,100.00
2024-05-09T05:00:32.496Z,100.00
2024-05-09T05:03:07.051Z,100.00
2024-05-09T05:05:37.289Z,100.00
2024-05-09T05:08:04.091Z,100.00
2024-05-09T05:10:35.872Z,100.00
2024-05-09T05:13:18.007Z,100.00
2024-05-09T05:16:03.540Z,100.00
2024-05-09T05:18:30.314Z,100.00
2024-05-09T05:20:58.593Z,100.00
2024-05-09T05:23:25.465Z,100.00
2024-05-09T05:25:53.364Z,100.00
2024-05-09T05:28:20.793Z,100.00
2024-05-09T05:30:47.565Z,100.00
2024-05-09T05:33:16.032Z,100.00
2024-05-09T05:35:42.963Z,100.00
2024-05-09T05:38:10.796Z,100.00
2024-05-09T05:40:38.710Z,100.00
2024-05-09T05:43:10.459Z,100.00
2024-05-09T05:45:37.900Z,100.00
2024-05-09T05:48:06.526Z,100.00
2024-05-09T05:50:36.938Z,100.00
2024-05-09T05:53:06.731Z,100.00
2024-05-09T05:55:33.714Z,100.00
2024-05-09T05:58:01.961Z,100.00
2024-05-09T06:00:34.988Z,100.00
2024-05-09T06:03:05.837Z,100.00
2024-05-09T06:05:32.944Z,100.00
2024-05-09T06:07:59.746Z,100.00
2024-05-09T06:10:34.898Z,100.00
2024-05-09T06:13:05.605Z,100.00
2024-05-09T06:15:32.278Z,100.00
2024-05-09T06:17:59.471Z,100.00
2024-05-09T06:20:34.727Z,100.00
2024-05-09T06:23:04.405Z,100.00
2024-05-09T06:25:31.391Z,100.00
2024-05-09T06:27:57.966Z,100.00
2024-05-09T06:30:30.965Z,100.00
2024-05-09T06:33:06.060Z,100.00
2024-05-09T06:35:33.643Z,100.00
2024-05-09T06:38:00.852Z,100.00
2024-05-09T06:40:36.233Z,100.00
2024-05-09T06:43:05.671Z,100.00
2024-05-09T06:45:32.311Z,97.93
2024-05-09T06:47:59.316Z,95.61
2024-05-09T06:50:28.644Z,89.34
2024-05-09T06:53:02.398Z,92.82
2024-05-09T06:55:29.202Z,89.43
2024-05-09T06:57:55.934Z,97.49
2024-05-09T07:00:30.281Z,89.43
2024-05-09T07:03:12.290Z,91.06
2024-05-09T07:05:40.474Z,88.32
2024-05-09T07:08:07.451Z,87.73
2024-05-09T07:10:36.106Z,80.15
2024-05-09T07:13:07.849Z,87.16
2024-05-09T07:15:34.396Z,76.95
2024-05-09T07:18:01.240Z,78.04
2024-05-09T07:20:34.170Z,67.52
2024-05-09T07:23:03.138Z,74.96
2024-05-09T07:25:30.309Z,79.40
2024-05-09T07:27:57.099Z,72.12
2024-05-09T07:30:32.550Z,63.91
2024-05-09T07:33:01.462Z,60.56
2024-05-09T07:35:28.812Z,69.67
2024-05-09T07:37:55.596Z,67.87
2024-05-09T07:40:31.698Z,69.06
2024-05-09T07:43:07.288Z,76.93
2024-05-09T07:52:23.584Z,68.07
2024-05-09T07:53:38.730Z,69.18
2024-05-09T07:56:09.094Z,70.07
2024-05-09T07:58:36.603Z,66.19
2024-05-09T08:01:03.374Z,71.97
2024-05-09T08:03:30.542Z,72.04
2024-05-09T08:05:57.251Z,72.07
2024-05-09T08:08:23.834Z,73.00
2024-05-09T08:10:51.330Z,77.02
2024-05-09T08:13:18.057Z,73.02
2024-05-09T08:15:44.959Z,77.79
2024-05-09T08:18:12.939Z,75.99
2024-05-09T08:20:41.428Z,82.61
2024-05-09T08:23:08.291Z,83.46
2024-05-09T08:25:34.880Z,78.18
2024-05-09T08:28:01.551Z,79.37
2024-05-09T08:30:33.800Z,76.58
2024-05-09T08:33:04.633Z,71.61
2024-05-09T08:35:31.855Z,69.71
2024-05-09T08:37:58.641Z,79.45
2024-05-09T08:40:32.931Z,71.39
2024-05-09T08:43:02.873Z,73.93
2024-05-09T08:45:30.208Z,65.61
2024-05-09T08:48:01.516Z,65.15
2024-05-09T08:50:35.937Z,66.01
2024-05-09T08:53:06.059Z,64.48
2024-05-09T08:55:32.916Z,71.15
2024-05-09T08:58:02.720Z,75.21
2024-05-09T09:00:36.804Z,73.57
2024-05-09T09:03:07.238Z,78.82
2024-05-09T09:05:38.057Z,75.08
2024-05-09T09:08:07.314Z,72.76
2024-05-09T09:10:34.083Z,69.54
2024-05-09T09:13:05.107Z,60.77
2024-05-09T09:15:34.972Z,72.39
2024-05-09T09:18:01.910Z,67.17
2024-05-09T09:20:35.880Z,70.80
2024-05-09T09:23:04.551Z,71.26
2024-05-09T09:25:31.851Z,67.82
2024-05-09T09:27:58.964Z,63.79
2024-05-09T09:30:36.247Z,63.56
2024-05-09T09:33:06.067Z,67.12
2024-05-09T09:35:33.152Z,71.66
2024-05-09T09:38:03.328Z,72.56
2024-05-09T09:40:42.399Z,81.89
2024-05-09T09:43:18.600Z,80.97
2024-05-09T09:45:46.906Z,80.28
2024-05-09T09:48:15.317Z,77.11
2024-05-09T09:50:43.187Z,77.15
2024-05-09T09:53:11.405Z,72.67
2024-05-09T09:55:39.827Z,74.88
2024-05-09T09:58:09.573Z,69.99
2024-05-09T10:00:38.601Z,67.66
2024-05-09T10:03:05.500Z,71.59
2024-05-09T10:05:33.724Z,69.32
2024-05-09T10:08:05.148Z,77.42
2024-05-09T10:10:34.169Z,71.71
2024-05-09T10:13:04.555Z,72.39
2024-05-09T10:15:46.204Z,69.08
2024-05-09T10:18:13.450Z,73.20
2024-05-09T10:20:49.348Z,68.86
2024-05-09T10:23:33.597Z,64.05
2024-05-09T10:26:05.510Z,63.69
2024-05-09T10:28:34.108Z,71.08
2024-05-09T10:31:07.533Z,64.78
2024-05-09T10:33:46.207Z,64.78
2024-05-09T10:36:14.761Z,61.77
2024-05-09T10:38:43.019Z,61.84
2024-05-09T10:41:10.771Z,60.17
2024-05-09T10:43:39.818Z,59.79
2024-05-09T10:46:07.690Z,56.45
2024-05-09T10:48:36.008Z,62.11
2024-05-09T10:51:03.104Z,64.32
2024-05-09T10:53:31.145Z,62.50
2024-05-09T10:56:01.678Z,61.31
2024-05-09T10:58:28.509Z,58.95
2024-05-09T11:00:58.341Z,59.32
2024-05-09T11:03:25.274Z,58.08
2024-05-09T11:05:52.981Z,55.05
2024-05-09T11:08:23.975Z,55.35
2024-05-09T11:10:52.714Z,53.31
2024-05-09T11:13:33.067Z,53.39
2024-05-09T11:16:00.774Z,54.07
2024-05-09T11:18:32.187Z,58.75
2024-05-09T11:21:02.023Z,53.73
2024-05-09T11:23:32.235Z,55.20
2024-05-09T11:25:59.169Z,49.75
2024-05-09T11:28:28.798Z,49.68
2024-05-09T11:31:06.695Z,51.74
2024-05-09T11:33:37.640Z,48.83
2024-05-09T11:36:05.339Z,50.01
2024-05-09T11:38:32.560Z,52.85
2024-05-09T11:40:59.208Z,52.02
2024-05-09T11:43:25.801Z,53.26
2024-05-09T11:45:52.500Z,48.61
2024-05-09T11:48:19.331Z,51.34
2024-05-09T11:50:46.109Z,47.84
2024-05-09T11:53:12.696Z,47.28
2024-05-09T11:55:39.290Z,47.07
2024-05-09T11:58:06.141Z,51.43
2024-05-09T12:00:36.987Z,49.21
2024-05-09T12:03:05.771Z,49.90
2024-05-09T12:05:33.347Z,44.47
2024-05-09T12:08:00.867Z,50.71
2024-05-09T12:10:33.208Z,49.37
2024-05-09T12:13:03.981Z,51.95
2024-05-09T12:15:32.411Z,53.72
2024-05-09T12:18:02.530Z,50.74
2024-05-09T12:20:36.617Z,50.38
2024-05-09T12:23:06.566Z,49.81
2024-05-09T12:25:36.132Z,50.17
2024-05-09T12:28:03.123Z,50.86
2024-05-09T12:30:36.571Z,51.95
2024-05-09T12:33:08.594Z,51.33
2024-05-09T12:35:35.635Z,53.13
2024-05-09T12:38:03.064Z,51.20
2024-05-09T12:42:59.279Z,49.24
2024-05-09T12:45:25.862Z,49.56
2024-05-09T12:47:52.574Z,48.09
2024-05-09T12:50:28.786Z,52.05
2024-05-09T12:52:58.421Z,53.13
2024-05-09T12:55:25.058Z,52.30
2024-05-09T12:57:51.673Z,50.93
2024-05-09T13:00:24.022Z,49.93
2024-05-09T13:02:57.851Z,51.78
2024-05-09T13:05:24.750Z,53.64
2024-05-09T13:07:51.510Z,60.09
2024-05-09T13:10:28.690Z,56.01
2024-05-09T13:12:59.271Z,53.25
2024-05-09T13:15:26.028Z,57.75
2024-05-09T13:17:52.879Z,55.76
2024-05-09T13:20:28.890Z,56.56
2024-05-09T13:23:01.466Z,54.89
2024-05-09T13:25:28.067Z,55.21
2024-05-09T13:27:55.011Z,60.50
2024-05-09T13:30:29.345Z,63.89
2024-05-09T13:33:05.162Z,67.04
2024-05-09T13:35:32.336Z,69.43
2024-05-09T13:37:59.068Z,72.03
2024-05-09T13:40:32.705Z,67.62
2024-05-09T13:43:02.173Z,69.67
2024-05-09T13:45:29.039Z,64.18
2024-05-09T13:47:55.860Z,63.17
2024-05-09T13:50:31.105Z,65.02
2024-05-09T13:53:01.941Z,65.42
2024-05-09T13:55:28.711Z,68.89
2024-05-09T13:57:55.630Z,68.90
2024-05-09T14:00:32.105Z,67.46
2024-05-09T14:03:09.394Z,71.25
2024-05-09T14:05:36.308Z,73.68
2024-05-09T14:08:04.522Z,78.11
2024-05-09T14:10:32.376Z,77.76
2024-05-09T14:13:00.742Z,84.20
2024-05-09T14:15:27.770Z,82.66
2024-05-09T14:17:55.409Z,81.44
2024-05-09T14:20:30.387Z,79.67
2024-05-09T14:22:59.309Z,76.83
2024-05-09T14:25:28.391Z,77.51
2024-05-09T14:27:56.068Z,75.95
2024-05-09T14:30:30.649Z,78.90
2024-05-09T14:33:03.471Z,75.99
2024-05-09T14:35:30.258Z,75.91
2024-05-09T14:37:56.927Z,76.94
2024-05-09T14:40:36.634Z,80.09
2024-05-09T14:43:08.493Z,79.42
2024-05-09T14:45:35.520Z,82.94
2024-05-09T14:48:03.727Z,81.65
2024-05-09T14:50:36.100Z,85.67
2024-05-09T14:53:07.096Z,89.81
2024-05-09T14:55:36.899Z,88.89
2024-05-09T14:58:06.830Z,89.49
2024-05-09T15:00:36.602Z,91.09
2024-05-09T15:03:05.531Z,97.15
2024-05-09T15:05:32.248Z,94.71
2024-05-09T15:07:59.456Z,97.62
2024-05-09T15:10:33.982Z,96.14
2024-05-09T15:13:04.304Z,95.00
2024-05-09T15:15:31.177Z,96.89
2024-05-09T15:17:58.060Z,100.00
2024-05-09T15:20:32.979Z,100.00
2024-05-09T15:23:02.813Z,100.00
2024-05-09T15:25:29.728Z,100.00
2024-05-09T15:27:56.710Z,100.00
2024-05-09T15:30:30.724Z,100.00
2024-05-09T15:33:03.257Z,100.00
2024-05-09T15:35:30.144Z,100.00
2024-05-09T15:37:56.818Z,100.00
2024-05-09T15:40:35.539Z,100.00
2024-05-09T15:43:07.127Z,100.00
2024-05-09T15:45:34.568Z,100.00
2024-05-09T15:48:02.564Z,100.00
2024-05-09T15:50:36.938Z,100.00
2024-05-09T15:53:07.997Z,100.00
2024-05-09T15:55:35.557Z,100.00
2024-05-09T15:58:03.307Z,100.00
2024-05-09T16:00:37.572Z,100.00
2024-05-09T16:03:08.566Z,100.00
2024-05-09T16:05:35.538Z,100.00
2024-05-09T16:08:02.617Z,100.00
2024-05-09T16:10:32.952Z,100.00
2024-05-09T16:13:01.555Z,100.00
2024-05-09T16:15:28.803Z,100.00
2024-05-09T16:17:56.220Z,100.00
2024-05-09T16:20:34.238Z,100.00
2024-05-09T16:23:06.467Z,100.00
2024-05-09T16:25:33.398Z,100.00
2024-05-09T16:28:00.293Z,100.00
2024-05-09T16:30:31.929Z,100.00
2024-05-09T16:33:02.450Z,100.00
2024-05-09T16:35:29.437Z,100.00
2024-05-09T16:37:56.181Z,100.00
2024-05-09T16:40:30.319Z,100.00
2024-05-09T16:43:04.648Z,100.00
2024-05-09T16:45:32.013Z,100.00
2024-05-09T16:47:59.956Z,100.00
2024-05-09T16:50:32.333Z,100.00
2024-05-09T16:53:01.124Z,100.00
2024-05-09T16:55:28.035Z,100.00
2024-05-09T16:57:55.626Z,100.00
2024-05-09T17:00:31.631Z,100.00
2024-05-09T17:03:06.807Z,100.00
2024-05-09T17:05:34.311Z,100.00
2024-05-09T17:08:01.473Z,100.00
2024-05-09T17:10:32.889Z,100.00
2024-05-09T17:13:02.920Z,100.00
2024-05-09T17:15:30.088Z,100.00
2024-05-09T17:17:57.051Z,100.00
2024-05-09T17:20:31.353Z,100.00
2024-05-09T17:23:02.284Z,100.00
2024-05-09T17:25:29.380Z,100.00
2024-05-09T17:27:56.647Z,100.00
2024-05-09T17:30:31.570Z,100.00
2024-05-09T17:33:03.338Z,100.00
2024-05-09T17:35:30.109Z,100.00
2024-05-09T17:37:58.134Z,100.00
2024-05-09T17:40:31.133Z,100.00
2024-05-09T17:43:01.781Z,100.00
2024-05-09T17:45:28.558Z,100.00
2024-05-09T17:47:55.567Z,100.00
2024-05-09T17:50:30.225Z,100.00
2024-05-09T17:53:01.329Z,100.00
2024-05-09T17:55:28.735Z,100.00
2024-05-09T17:57:55.614Z,100.00
2024-05-09T18:00:32.867Z,100.00
2024-05-09T18:03:05.486Z,100.00
2024-05-09T18:05:32.621Z,100.00
2024-05-09T18:07:59.458Z,100.00
2024-05-09T18:10:33.156Z,100.00
2024-05-09T18:13:04.120Z,100.00
2024-05-09T18:15:30.906Z,100.00
2024-05-09T18:17:58.108Z,100.00
2024-05-09T18:20:33.166Z,100.00
2024-05-09T18:23:08.133Z,100.00
2024-05-09T18:25:34.953Z,100.00
2024-05-09T18:28:03.039Z,100.00
2024-05-09T18:30:34.778Z,100.00
2024-05-09T18:33:04.945Z,100.00
2024-05-09T18:35:32.661Z,100.00
2024-05-09T18:37:59.382Z,100.00
2024-05-09T18:40:33.645Z,100.00
2024-05-09T18:43:04.891Z,100.00
2024-05-09T18:45:32.668Z,100.00
2024-05-09T18:47:59.508Z,100.00
2024-05-09T18:50:34.345Z,100.00
2024-05-09T18:53:08.771Z,100.00
2024-05-09T18:55:35.753Z,100.00
2024-05-09T18:58:03.671Z,100.00
2024-05-09T19:00:35.918Z,100.00
2024-05-09T19:03:09.690Z,100.00
2024-05-09T19:05:38.863Z,100.00
2024-05-09T19:08:06.370Z,100.00
2024-05-09T19:10:35.040Z,100.00
2024-05-09T19:13:08.035Z,100.00
2024-05-09T19:15:38.601Z,100.00
2024-05-09T19:18:06.180Z,100.00
2024-05-09T19:20:35.243Z,100.00
2024-05-09T19:23:03.629Z,100.00
2024-05-09T19:25:30.424Z,100.00
2024-05-09T19:27:57.120Z,100.00
2024-05-09T19:30:32.883Z,100.00
2024-05-09T19:33:05.740Z,100.00
2024-05-09T19:35:32.643Z,100.00
2024-05-09T19:37:59.477Z,100.00
2024-05-09T19:40:31.318Z,100.00
2024-05-09T19:43:00.492Z,100.00
2024-05-09T19:45:27.164Z,100.00
2024-05-09T19:47:53.922Z,100.00
2024-05-09T19:50:27.123Z,100.00
2024-05-09T19:53:03.076Z,100.00
2024-05-09T19:55:29.824Z,100.00
2024-05-09T19:57:56.948Z,100.00
2024-05-09T20:00:32.328Z,100.00
2024-05-09T20:03:02.551Z,100.00
2024-05-09T20:05:31.217Z,100.00
2024-05-09T20:07:58.203Z,100.00
2024-05-09T20:10:31.105Z,100.00
2024-05-09T20:12:59.667Z,100.00
2024-05-09T20:15:26.463Z,100.00
2024-05-09T20:17:53.844Z,100.00
2024-05-09T20:20:28.693Z,100.00
2024-05-09T20:23:03.258Z,100.00
2024-05-09T20:25:29.974Z,100.00
2024-05-09T20:27:56.674Z,100.00
2024-05-09T20:30:30.565Z,100.00
2024-05-09T20:32:59.980Z,100.00
2024-05-09T20:35:26.950Z,100.00
2024-05-09T20:37:53.645Z,100.00
2024-05-09T20:40:28.360Z,100.00
2024-05-09T20:42:59.143Z,100.00
2024-05-09T20:45:25.863Z,100.00
2024-05-09T20:47:52.760Z,100.00
2024-05-09T20:50:28.196Z,100.00
2024-05-09T20:53:02.682Z,100.00
2024-05-09T20:55:30.128Z,100.00
2024-05-09T20:58:00.363Z,100.00
2024-05-09T21:00:35.173Z,100.00
2024-05-09T21:03:07.350Z,100.00
2024-05-09T21:05:35.195Z,100.00
2024-05-09T21:08:02.321Z,100.00
2024-05-09T21:10:32.823Z,100.00
2024-05-09T21:13:00.939Z,100.00
2024-05-09T21:15:27.740Z,100.00
2024-05-09T21:17:54.472Z,100.00
2024-05-09T21:20:28.122Z,100.00
2024-05-09T21:22:58.069Z,100.00
2024-05-09T21:25:24.761Z,100.00
2024-05-09T21:27:51.566Z,100.00
2024-05-09T21:30:27.319Z,100.00
2024-05-09T21:32:59.929Z,100.00
2024-05-09T21:35:26.642Z,100.00
2024-05-09T21:37:53.320Z,100.00
2024-05-09T21:40:27.349Z,100.00
2024-05-09T21:43:01.208Z,100.00
2024-05-09T21:45:27.996Z,100.00
2024-05-09T21:47:55.136Z,100.00
2024-05-09T21:50:28.199Z,100.00
2024-05-09T21:53:02.020Z,100.00
2024-05-09T21:55:28.638Z,100.00
2024-05-09T21:57:56.633Z,100.00
2024-05-09T22:00:29.234Z,100.00
2024-05-09T22:03:02.608Z,100.00
2024-05-09T22:05:29.492Z,100.00
2024-05-09T22:07:56.984Z,100.00
2024-05-09T22:10:30.531Z,100.00
2024-05-09T22:13:00.880Z,100.00
2024-05-09T22:15:27.604Z,100.00
2024-05-09T22:17:56.062Z,100.00
2024-05-09T22:20:29.422Z,100.00
2024-05-09T22:23:04.247Z,100.00
2024-05-09T22:25:32.094Z,100.00
2024-05-09T22:27:59.483Z,100.00
2024-05-09T22:30:33.730Z,100.00
2024-05-09T22:33:04.719Z,100.00
2024-05-09T22:35:31.444Z,100.00
2024-05-09T22:37:57.998Z,100.00
2024-05-09T22:40:37.427Z,100.00
2024-05-09T22:43:12.309Z,100.00
2024-05-09T22:45:39.235Z,100.00
2024-05-09T22:48:06.741Z,100.00
2024-05-09T22:50:33.928Z,100.00
2024-05-09T22:53:00.981Z,100.00
2024-05-09T22:55:27.714Z,100.00
2024-05-09T22:57:54.364Z,100.00
2024-05-09T23:00:29.285Z,100.00
2024-05-09T23:03:02.372Z,100.00
2024-05-09T23:05:29.700Z,100.00
2024-05-09T23:07:56.481Z,100.00
2024-05-09T23:10:31.089Z,100.00
2024-05-09T23:13:02.612Z,100.00
2024-05-09T23:15:29.504Z,100.00
2024-05-09T23:17:57.356Z,100.00
2024-05-09T23:22:53.909Z,100.00
2024-05-09T23:25:20.609Z,100.00
2024-05-09T23:27:47.364Z,100.00
2024-05-09T23:30:25.395Z,100.00
2024-05-09T23:32:55.968Z,100.00
2024-05-09T23:35:22.761Z,100.00
2024-05-09T23:37:49.360Z,100.00
2024-05-09T23:40:19.007Z,100.00
2024-05-09T23:42:49.342Z,100.00
2024-05-09T23:45:16.015Z,100.00
2024-05-09T23:47:42.684Z,100.00
2024-05-09T23:50:16.554Z,100.00
2024-05-09T23:52:47.380Z,100.00
2024-05-09T23:55:14.171Z,100.00
2024-05-09T23:57:41.146Z,100.00
